Terminal Aerodrome Forecast
Issued by NWS Brownsville, TX

Home | Current Version | Previous Version | Text Only | Print | Product List | Glossary On
Versions: 1 2 3 4 5 6 7 8 9 10 11 12 13 14 15 16 17
000
FTUS44 KBRO 272329
TAFBRO
TAF
KBRO 272329Z 2800/2824 10010KT P6SM BKN040
     FM280200 13008KT P6SM OVC019
     FM281300 14012KT P6SM SCT030
     FM281500 16016G22KT P6SM BKN050=

USA.gov is the U.S. government's official web portal to all federal, state and local government web resources and services.